createdAt,value
2019-03-01T00:02:48.381Z,21.49
2019-03-01T00:08:12.576Z,21.50
2019-03-01T00:13:38.694Z,21.49
2019-03-01T00:19:01.540Z,21.47
2019-03-01T00:24:20.009Z,21.46
2019-03-01T00:29:41.461Z,21.46
2019-03-01T00:34:56.891Z,21.44
2019-03-01T00:40:08.911Z,21.44
2019-03-01T00:45:12.369Z,21.43
2019-03-01T00:50:16.002Z,21.43
2019-03-01T00:55:19.461Z,21.43
2019-03-01T01:00:34.666Z,21.42
2019-03-01T01:05:38.125Z,21.42
2019-03-01T01:10:41.588Z,21.41
2019-03-01T01:15:45.041Z,21.42
2019-03-01T01:20:48.496Z,21.41
2019-03-01T01:25:51.983Z,21.38
2019-03-01T01:30:55.413Z,21.40
2019-03-01T01:35:58.875Z,21.40
2019-03-01T01:41:02.323Z,21.38
2019-03-01T01:46:05.772Z,21.38
2019-03-01T01:51:09.227Z,21.37
2019-03-01T01:56:12.682Z,21.37
2019-03-01T02:01:16.141Z,21.36
2019-03-01T02:06:19.597Z,21.35
2019-03-01T02:11:23.329Z,21.35
2019-03-01T02:16:26.789Z,21.35
2019-03-01T02:21:30.419Z,21.36
2019-03-01T02:26:33.945Z,21.34
2019-03-01T02:31:38.952Z,21.35
2019-03-01T02:36:42.410Z,21.34
2019-03-01T02:41:45.874Z,21.35
2019-03-01T02:46:49.324Z,21.34
2019-03-01T02:51:52.783Z,21.34
2019-03-01T02:56:56.266Z,21.33
2019-03-01T03:01:59.700Z,21.34
2019-03-01T03:07:04.799Z,21.34
2019-03-01T03:12:08.251Z,21.32
2019-03-01T03:17:11.717Z,21.33
2019-03-01T03:22:15.167Z,21.32
2019-03-01T03:27:18.621Z,21.31
2019-03-01T03:32:22.087Z,21.32
2019-03-01T03:37:25.541Z,21.31
2019-03-01T03:42:28.998Z,21.30
2019-03-01T03:47:32.460Z,21.32
2019-03-01T03:52:35.916Z,21.31
2019-03-01T03:57:39.616Z,21.30
2019-03-01T04:02:43.241Z,21.30
2019-03-01T04:07:47.035Z,21.29
2019-03-01T04:12:50.490Z,21.30
2019-03-01T04:17:53.953Z,21.29
2019-03-01T04:22:57.416Z,21.29
2019-03-01T04:28:00.877Z,21.21
2019-03-01T04:33:04.334Z,21.21
2019-03-01T04:38:07.790Z,21.28
2019-03-01T04:43:11.244Z,21.29
2019-03-01T04:48:14.701Z,21.30
2019-03-01T04:53:18.159Z,21.32
2019-03-01T04:58:21.616Z,21.34
2019-03-01T05:03:25.074Z,21.33
2019-03-01T05:08:28.529Z,21.33
2019-03-01T05:13:31.985Z,21.32
2019-03-01T05:18:35.441Z,21.33
2019-03-01T05:23:38.899Z,21.28
2019-03-01T05:28:42.353Z,21.33
2019-03-01T05:33:45.820Z,21.34
2019-03-01T05:38:49.277Z,21.33
2019-03-01T05:43:52.731Z,21.32
2019-03-01T05:48:56.192Z,21.32
2019-03-01T05:53:59.648Z,21.33
2019-03-01T05:59:17.800Z,21.33
2019-03-01T06:04:24.304Z,21.32
2019-03-01T06:09:30.810Z,21.32
2019-03-01T06:14:37.382Z,21.32
2019-03-01T06:19:43.910Z,21.30
2019-03-01T06:24:59.310Z,21.32
2019-03-01T06:30:25.192Z,21.33
2019-03-01T06:35:48.141Z,21.31
2019-03-01T06:41:20.104Z,21.30
2019-03-01T06:46:43.094Z,21.30
2019-03-01T06:51:46.564Z,21.30
2019-03-01T06:56:50.036Z,21.30
2019-03-01T07:01:53.514Z,21.30
2019-03-01T07:06:56.989Z,21.30
2019-03-01T07:12:00.461Z,21.21
2019-03-01T07:17:03.932Z,21.28
2019-03-01T07:22:07.410Z,21.28
2019-03-01T07:27:12.365Z,21.27
2019-03-01T07:32:15.936Z,21.27
2019-03-01T07:37:19.408Z,21.26
2019-03-01T07:42:22.889Z,21.26
2019-03-01T07:47:26.361Z,21.25
2019-03-01T07:52:29.833Z,21.26
2019-03-01T07:57:33.305Z,20.99
2019-03-01T08:02:39.786Z,19.50
2019-03-01T08:07:41.993Z,19.78
2019-03-01T08:12:47.367Z,20.03
2019-03-01T08:17:50.667Z,20.24
2019-03-01T08:22:56.737Z,20.40
2019-03-01T08:27:59.343Z,20.44
2019-03-01T08:33:06.812Z,20.68
2019-03-01T08:38:08.017Z,20.68
2019-03-01T08:43:12.998Z,20.72
2019-03-01T08:48:16.742Z,20.78
2019-03-01T08:53:20.212Z,20.83
2019-03-01T08:58:23.690Z,20.87
2019-03-01T09:03:36.110Z,20.92
2019-03-01T09:08:42.782Z,20.93
2019-03-01T09:13:44.785Z,20.96
2019-03-01T09:18:50.028Z,20.99
2019-03-01T09:23:54.995Z,21.01
2019-03-01T09:28:58.703Z,21.04
2019-03-01T09:34:02.172Z,21.06
2019-03-01T09:39:08.520Z,21.07
2019-03-01T09:44:11.994Z,21.07
2019-03-01T09:49:15.464Z,21.08
2019-03-01T09:54:18.939Z,21.10
2019-03-01T09:59:22.412Z,21.11
2019-03-01T10:04:25.886Z,21.11
2019-03-01T10:09:29.358Z,21.12
2019-03-01T10:14:33.682Z,21.12
2019-03-01T10:19:37.149Z,21.13
2019-03-01T10:24:40.620Z,21.12
2019-03-01T10:29:44.099Z,21.13
2019-03-01T10:34:47.571Z,21.14
2019-03-01T10:39:55.412Z,21.16
2019-03-01T10:44:56.237Z,21.16
2019-03-01T10:49:59.704Z,21.16
2019-03-01T10:55:03.296Z,21.16
2019-03-01T11:00:26.623Z,21.16
2019-03-01T11:05:30.094Z,21.16
2019-03-01T11:10:36.364Z,21.15
2019-03-01T11:15:39.896Z,21.15
2019-03-01T11:20:43.431Z,21.15
2019-03-01T11:25:46.900Z,21.15
2019-03-01T11:30:50.372Z,21.24
2019-03-01T11:35:53.844Z,21.34
2019-03-01T11:40:57.384Z,21.40
2019-03-01T11:46:00.945Z,21.44
2019-03-01T11:51:04.395Z,21.44
2019-03-01T11:56:07.872Z,21.45
2019-03-01T12:01:17.214Z,21.52
2019-03-01T12:06:16.538Z,21.50
2019-03-01T12:11:20.014Z,21.49
2019-03-01T12:16:23.556Z,21.49
2019-03-01T12:21:27.025Z,21.58
2019-03-01T12:26:30.495Z,21.54
2019-03-01T12:31:33.967Z,21.53
2019-03-01T12:36:37.447Z,21.52
2019-03-01T12:41:40.911Z,21.31
2019-03-01T12:46:44.369Z,21.31
2019-03-01T12:51:47.856Z,21.40
2019-03-01T12:56:51.288Z,21.36
2019-03-01T13:01:54.755Z,21.42
2019-03-01T13:06:58.220Z,21.46
2019-03-01T13:12:01.678Z,21.48
2019-03-01T13:17:05.380Z,21.45
2019-03-01T13:22:08.851Z,21.41
2019-03-01T13:27:14.204Z,21.38
2019-03-01T13:32:19.901Z,21.35
2019-03-01T13:37:24.348Z,21.33
2019-03-01T13:42:29.224Z,21.30
2019-03-01T13:47:32.687Z,21.30
2019-03-01T13:52:36.145Z,21.29
2019-03-01T13:57:39.604Z,21.32
2019-03-01T14:02:46.581Z,21.34
2019-03-01T14:07:55.260Z,21.38
2019-03-01T14:12:54.167Z,21.33
2019-03-01T14:18:01.252Z,21.34
2019-03-01T14:23:02.808Z,21.35
2019-03-01T14:28:06.392Z,21.36
2019-03-01T14:33:09.795Z,21.37
2019-03-01T14:38:13.263Z,21.37
2019-03-01T14:43:16.715Z,21.37
2019-03-01T14:48:20.174Z,21.36
2019-03-01T14:53:23.633Z,21.38
2019-03-01T14:58:41.892Z,21.43
2019-03-01T15:03:45.344Z,21.42
2019-03-01T15:08:48.802Z,21.44
2019-03-01T15:13:52.255Z,21.50
2019-03-01T15:18:55.712Z,21.54
2019-03-01T15:24:00.093Z,21.56
2019-03-01T15:29:05.530Z,21.58
2019-03-01T15:34:08.984Z,21.59
2019-03-01T15:39:12.512Z,21.58
2019-03-01T15:44:15.972Z,21.53
2019-03-01T15:49:23.635Z,21.51
2019-03-01T15:54:24.605Z,21.52
2019-03-01T15:59:28.078Z,21.53
2019-03-01T16:04:33.642Z,21.50
2019-03-01T16:09:36.741Z,21.51
2019-03-01T16:14:40.199Z,21.47
2019-03-01T16:19:43.651Z,21.52
2019-03-01T16:24:47.113Z,21.51
2019-03-01T16:29:50.567Z,21.48
2019-03-01T16:34:54.025Z,21.48
2019-03-01T16:40:00.203Z,21.47
2019-03-01T16:45:02.678Z,21.45
2019-03-01T16:50:10.086Z,21.47
2019-03-01T16:55:24.326Z,21.46
2019-03-01T17:00:27.269Z,21.46
2019-03-01T17:05:30.726Z,21.46
2019-03-01T17:10:34.263Z,21.46
2019-03-01T17:15:37.724Z,21.47
2019-03-01T17:20:41.176Z,21.49
2019-03-01T17:25:44.627Z,21.49
2019-03-01T17:30:50.857Z,21.50
2019-03-01T17:35:53.265Z,21.51
2019-03-01T17:40:56.729Z,21.53
2019-03-01T17:46:00.190Z,21.54
2019-03-01T17:51:03.649Z,21.56
2019-03-01T17:56:07.117Z,21.57
2019-03-01T18:01:10.577Z,21.57
2019-03-01T18:06:16.869Z,21.59
2019-03-01T18:11:19.214Z,21.61
2019-03-01T18:16:24.894Z,21.75
2019-03-01T18:21:27.847Z,21.80
2019-03-01T18:26:31.313Z,21.75
2019-03-01T18:31:35.621Z,21.74
2019-03-01T18:36:39.113Z,21.73
2019-03-01T18:41:42.578Z,21.76
2019-03-01T18:46:46.038Z,21.76
2019-03-01T18:51:49.500Z,21.77
2019-03-01T18:56:52.960Z,21.78
2019-03-01T19:01:56.415Z,21.78
2019-03-01T19:06:59.871Z,21.77
2019-03-01T19:12:03.340Z,21.78
2019-03-01T19:17:06.809Z,21.78
2019-03-01T19:22:10.257Z,21.87
2019-03-01T19:27:15.571Z,21.93
2019-03-01T19:32:18.898Z,21.98
2019-03-01T19:37:22.358Z,22.02
2019-03-01T19:42:25.821Z,22.03
2019-03-01T19:47:29.280Z,22.06
2019-03-01T19:52:32.759Z,22.06
2019-03-01T19:57:36.460Z,22.09
2019-03-01T20:02:40.648Z,22.07
2019-03-01T20:07:44.112Z,22.11
2019-03-01T20:12:47.578Z,22.12
2019-03-01T20:17:51.210Z,22.03
2019-03-01T20:22:55.254Z,22.00
2019-03-01T20:27:58.916Z,21.99
2019-03-01T20:33:02.380Z,21.97
2019-03-01T20:38:05.847Z,21.92
2019-03-01T20:43:09.305Z,21.91
2019-03-01T20:48:12.765Z,21.89
2019-03-01T20:53:16.221Z,21.87
2019-03-01T20:58:19.682Z,21.84
2019-03-01T21:03:24.126Z,21.83
2019-03-01T21:08:29.128Z,21.79
2019-03-01T21:13:34.056Z,21.77
2019-03-01T21:18:37.514Z,21.76
2019-03-01T21:23:40.979Z,21.75
2019-03-01T21:28:44.440Z,21.73
2019-03-01T21:33:47.902Z,21.70
2019-03-01T21:38:51.356Z,21.70
2019-03-01T21:43:54.812Z,21.68
2019-03-01T21:49:00.489Z,21.67
2019-03-01T21:54:03.457Z,21.66
2019-03-01T21:59:06.913Z,21.65
2019-03-01T22:04:10.367Z,21.63
2019-03-01T22:09:14.769Z,21.62
2019-03-01T22:14:18.230Z,21.61
2019-03-01T22:19:21.689Z,21.60
2019-03-01T22:24:26.551Z,21.59
2019-03-01T22:29:30.104Z,21.59
2019-03-01T22:34:33.569Z,21.58
2019-03-01T22:39:37.031Z,21.57
2019-03-01T22:44:40.498Z,21.57
2019-03-01T22:49:43.961Z,21.57
2019-03-01T22:54:47.421Z,21.57
2019-03-01T22:59:50.885Z,21.56
2019-03-01T23:04:54.351Z,21.56
2019-03-01T23:09:57.810Z,21.55
2019-03-01T23:15:02.838Z,21.55
2019-03-01T23:20:11.460Z,21.56
2019-03-01T23:25:14.921Z,21.54
2019-03-01T23:30:18.383Z,21.54
2019-03-01T23:35:21.843Z,21.53
2019-03-01T23:40:25.307Z,21.53
2019-03-01T23:45:30.338Z,21.53
2019-03-01T23:50:34.922Z,21.52
2019-03-01T23:55:38.990Z,21.52
